createdAt,value
2022-12-24T00:02:34.681Z,-5.35
2022-12-24T00:05:39.733Z,-5.43
2022-12-24T00:08:44.246Z,-5.35
2022-12-24T00:11:49.108Z,-5.15
2022-12-24T00:14:53.626Z,-5.15
2022-12-24T00:17:58.296Z,-5.03
2022-12-24T00:21:04.825Z,-5.00
2022-12-24T00:24:09.330Z,-4.88
2022-12-24T00:27:13.854Z,-4.92
2022-12-24T00:30:18.543Z,-5.05
2022-12-24T00:33:24.803Z,-4.91
2022-12-24T00:36:29.723Z,-4.80
2022-12-24T00:39:34.738Z,-4.83
2022-12-24T00:42:39.577Z,-4.74
2022-12-24T00:45:44.409Z,-4.75
2022-12-24T00:48:49.334Z,-4.28
2022-12-24T00:51:53.993Z,-4.43
2022-12-24T00:54:58.528Z,-4.66
2022-12-24T00:58:02.821Z,-4.85
2022-12-24T01:01:07.389Z,-4.69
2022-12-24T01:04:30.400Z,-4.77
2022-12-24T01:07:35.000Z,-4.72
2022-12-24T01:10:39.619Z,-4.46
2022-12-24T01:13:43.972Z,-4.34
2022-12-24T01:16:48.435Z,-4.36
2022-12-24T01:19:52.896Z,-4.18
2022-12-24T01:22:57.551Z,-4.35
2022-12-24T01:26:03.586Z,-4.71
2022-12-24T01:29:08.290Z,-4.71
2022-12-24T01:32:12.982Z,-4.01
2022-12-24T01:35:17.365Z,-3.87
2022-12-24T01:38:21.739Z,-4.10
2022-12-24T01:41:45.021Z,-3.77
2022-12-24T01:44:53.574Z,-3.30
2022-12-24T01:47:58.806Z,-3.22
2022-12-24T01:51:15.879Z,-2.94
2022-12-24T01:54:33.275Z,-3.25
2022-12-24T01:57:52.492Z,-3.01
2022-12-24T02:00:57.228Z,-2.59
2022-12-24T02:04:06.490Z,-3.10
2022-12-24T02:07:11.417Z,-3.50
2022-12-24T02:10:16.374Z,-3.43
2022-12-24T02:13:22.486Z,-3.61
2022-12-24T02:16:58.744Z,-3.06
2022-12-24T02:20:26.397Z,-3.31
2022-12-24T02:23:57.929Z,-3.47
2022-12-24T02:27:34.521Z,-3.90
2022-12-24T02:30:46.433Z,-3.60
2022-12-24T02:34:06.042Z,-3.49
2022-12-24T02:37:28.281Z,-4.04
2022-12-24T02:40:40.528Z,-3.75
2022-12-24T02:43:49.587Z,-3.81
2022-12-24T02:46:55.294Z,-3.79
2022-12-24T02:50:01.706Z,-3.56
2022-12-24T02:53:10.481Z,-3.72
2022-12-24T02:56:38.007Z,-3.48
2022-12-24T03:00:09.025Z,-3.49
2022-12-24T03:03:33.825Z,-3.02
2022-12-24T03:06:53.405Z,-3.13
2022-12-24T03:10:00.879Z,-3.01
2022-12-24T03:13:19.196Z,-3.05
2022-12-24T03:16:28.269Z,-3.34
2022-12-24T03:19:34.303Z,-3.28
2022-12-24T03:22:40.034Z,-3.55
2022-12-24T03:25:45.694Z,-3.34
2022-12-24T03:28:51.212Z,-2.86
2022-12-24T03:32:02.385Z,-2.76
2022-12-24T03:35:08.917Z,-2.50
2022-12-24T03:38:13.423Z,-2.44
2022-12-24T03:41:17.964Z,-2.33
2022-12-24T03:44:22.490Z,-1.98
2022-12-24T03:47:26.995Z,-2.34
2022-12-24T03:50:31.627Z,-2.21
2022-12-24T03:53:36.079Z,-2.66
2022-12-24T03:56:40.402Z,-2.49
2022-12-24T03:59:45.390Z,-2.13
2022-12-24T04:02:50.158Z,-1.71
2022-12-24T04:06:07.610Z,-2.14
2022-12-24T04:09:12.240Z,-2.66
2022-12-24T04:12:16.819Z,-2.16
2022-12-24T04:15:21.401Z,-2.41
2022-12-24T04:18:26.290Z,-2.88
2022-12-24T04:21:30.800Z,-2.79
2022-12-24T04:24:35.550Z,-2.55
2022-12-24T04:27:39.983Z,-2.80
2022-12-24T04:30:45.010Z,-2.59
2022-12-24T04:33:52.111Z,-2.94
2022-12-24T04:36:56.687Z,-2.75
2022-12-24T04:40:01.216Z,-3.21
2022-12-24T04:43:07.508Z,-2.59
2022-12-24T04:46:20.916Z,-2.47
2022-12-24T04:49:25.373Z,-2.63
2022-12-24T04:52:30.139Z,-2.37
2022-12-24T04:55:34.795Z,-2.91
2022-12-24T04:58:39.655Z,-3.56
2022-12-24T05:01:44.071Z,-3.27
2022-12-24T05:04:48.839Z,-2.74
2022-12-24T05:07:53.518Z,-3.40
2022-12-24T05:11:02.314Z,-3.02
2022-12-24T05:14:06.863Z,-3.11
2022-12-24T05:17:11.707Z,-3.34
2022-12-24T05:20:16.840Z,-3.39
2022-12-24T05:23:42.644Z,-3.95
2022-12-24T05:26:54.380Z,-4.10
2022-12-24T05:29:59.020Z,-4.29
2022-12-24T05:33:03.519Z,-4.13
2022-12-24T05:36:08.771Z,-3.60
2022-12-24T05:39:17.943Z,-3.92
2022-12-24T05:42:22.441Z,-3.59
2022-12-24T05:45:27.122Z,-4.00
2022-12-24T05:48:31.986Z,-3.70
2022-12-24T05:51:36.585Z,-3.90
2022-12-24T05:54:41.210Z,-4.05
2022-12-24T05:57:47.123Z,-3.67
2022-12-24T06:00:55.427Z,-3.19
2022-12-24T06:04:00.145Z,-2.91
2022-12-24T06:07:04.586Z,-3.44
2022-12-24T06:10:10.575Z,-3.30
2022-12-24T06:13:16.410Z,-3.16
2022-12-24T06:16:22.657Z,-3.55
2022-12-24T06:19:27.525Z,-3.38
2022-12-24T06:22:32.274Z,-3.51
2022-12-24T06:25:36.590Z,-3.67
2022-12-24T06:28:41.116Z,-3.61
2022-12-24T06:31:45.980Z,-3.65
2022-12-24T06:34:50.866Z,-3.67
2022-12-24T06:37:55.575Z,-4.14
2022-12-24T06:41:00.508Z,-3.87
2022-12-24T06:44:05.285Z,-3.97
2022-12-24T06:47:09.896Z,-4.13
2022-12-24T06:50:14.835Z,-4.23
2022-12-24T06:53:19.311Z,-4.42
2022-12-24T06:56:23.963Z,-4.46
2022-12-24T06:59:28.464Z,-4.86
2022-12-24T07:02:33.188Z,-5.26
2022-12-24T07:05:37.882Z,-4.82
2022-12-24T07:08:42.371Z,-4.74
2022-12-24T07:11:47.067Z,-5.03
2022-12-24T07:14:51.678Z,-5.01
2022-12-24T07:17:56.392Z,-5.91
2022-12-24T07:21:02.147Z,-5.90
2022-12-24T07:24:06.534Z,-5.69
2022-12-24T07:27:11.141Z,-5.34
2022-12-24T07:30:16.568Z,-5.61
2022-12-24T07:33:21.259Z,-5.89
2022-12-24T07:36:25.783Z,-5.87
2022-12-24T07:39:30.783Z,-6.03
2022-12-24T07:42:35.807Z,-6.42
2022-12-24T07:45:41.309Z,-6.57
2022-12-24T07:48:46.172Z,-7.18
2022-12-24T07:51:50.730Z,-7.05
2022-12-24T07:54:55.427Z,-7.35
2022-12-24T07:58:00.128Z,-7.01
2022-12-24T08:01:04.713Z,-7.30
2022-12-24T08:04:09.630Z,-7.12
2022-12-24T08:07:14.298Z,-7.20
2022-12-24T08:10:19.053Z,-7.43
2022-12-24T08:13:23.630Z,-7.18
2022-12-24T08:16:28.283Z,-7.13
2022-12-24T08:19:32.814Z,-7.49
2022-12-24T08:22:38.960Z,-7.57
2022-12-24T08:25:48.267Z,-7.50
2022-12-24T08:28:52.870Z,-7.49
2022-12-24T08:31:57.757Z,-7.76
2022-12-24T08:35:02.107Z,-7.80
2022-12-24T08:38:07.192Z,-7.91
2022-12-24T08:41:11.864Z,-7.91
2022-12-24T08:44:16.367Z,-7.94
2022-12-24T08:47:20.863Z,-8.01
2022-12-24T08:50:25.841Z,-7.69
2022-12-24T08:53:30.297Z,-7.91
2022-12-24T08:56:35.444Z,-7.96
2022-12-24T08:59:39.834Z,-7.94
2022-12-24T09:02:44.485Z,-7.87
2022-12-24T09:05:49.401Z,-8.01
2022-12-24T09:08:53.841Z,-7.92
2022-12-24T09:11:58.653Z,-8.32
2022-12-24T09:15:04.567Z,-8.30
2022-12-24T09:18:09.315Z,-8.35
2022-12-24T09:21:16.341Z,-8.33
2022-12-24T09:24:20.899Z,-8.46
2022-12-24T09:27:25.417Z,-8.54
2022-12-24T09:30:29.737Z,-8.04
2022-12-24T09:33:37.664Z,-8.12
2022-12-24T09:36:42.108Z,-8.14
2022-12-24T09:39:46.638Z,-7.94
2022-12-24T09:42:55.172Z,-7.67
2022-12-24T09:46:24.303Z,-7.49
2022-12-24T09:49:40.129Z,-7.58
2022-12-24T09:52:47.775Z,-7.80
2022-12-24T09:55:57.742Z,-8.19
2022-12-24T09:59:05.318Z,-8.49
2022-12-24T10:02:16.579Z,-8.67
2022-12-24T10:05:43.892Z,-8.47
2022-12-24T10:09:07.368Z,-8.29
2022-12-24T10:12:28.727Z,-8.36
2022-12-24T10:15:47.949Z,-8.29
2022-12-24T10:19:04.400Z,-8.36
2022-12-24T10:22:36.228Z,-8.11
2022-12-24T10:25:59.605Z,-8.35
2022-12-24T10:29:26.276Z,-8.94
2022-12-24T10:32:34.095Z,-8.78
2022-12-24T10:35:47.645Z,-8.80
2022-12-24T10:38:52.607Z,-8.89
2022-12-24T10:42:00.817Z,-8.74
2022-12-24T10:45:08.724Z,-8.57
2022-12-24T10:48:26.706Z,-8.48
2022-12-24T10:51:38.945Z,-8.83
2022-12-24T10:55:22.125Z,-9.12
2022-12-24T10:58:26.782Z,-9.30
2022-12-24T11:01:48.986Z,-9.34
2022-12-24T11:04:54.369Z,-9.20
2022-12-24T11:08:19.253Z,-9.21
2022-12-24T11:11:24.451Z,-9.31
2022-12-24T11:14:37.655Z,-9.25
2022-12-24T11:17:42.545Z,-9.16
2022-12-24T11:20:53.532Z,-9.29
2022-12-24T11:24:26.080Z,-9.35
2022-12-24T11:27:51.470Z,-9.24
2022-12-24T11:31:03.847Z,-9.38
2022-12-24T11:34:23.370Z,-9.44
2022-12-24T11:37:27.771Z,-9.55
2022-12-24T11:40:38.128Z,-9.69
2022-12-24T11:43:49.621Z,-9.60
2022-12-24T11:46:57.827Z,-9.66
2022-12-24T11:50:21.200Z,-9.74
2022-12-24T11:53:47.834Z,-9.51
2022-12-24T11:56:56.317Z,-9.35
2022-12-24T12:00:00.797Z,-9.18
2022-12-24T12:03:30.194Z,-9.47
2022-12-24T12:06:56.331Z,-9.72
2022-12-24T12:10:20.651Z,-9.56
2022-12-24T12:13:33.977Z,-9.48
2022-12-24T12:17:07.602Z,-9.84
2022-12-24T12:20:25.009Z,-9.91
2022-12-24T12:23:37.465Z,-9.33
2022-12-24T12:26:44.160Z,-9.04
2022-12-24T12:29:58.611Z,-9.33
2022-12-24T12:33:27.143Z,-9.51
2022-12-24T12:36:42.339Z,-9.53
2022-12-24T12:39:47.110Z,-9.58
2022-12-24T12:43:23.466Z,-9.26
2022-12-24T12:46:52.308Z,-9.87
2022-12-24T12:50:12.841Z,-9.62
2022-12-24T12:53:28.814Z,-9.85
2022-12-24T12:56:38.306Z,-9.88
2022-12-24T12:59:58.555Z,-9.81
2022-12-24T13:03:27.471Z,-9.51
2022-12-24T13:06:59.373Z,-9.40
2022-12-24T13:10:24.112Z,-9.79
2022-12-24T13:13:46.879Z,-9.79
2022-12-24T13:17:30.386Z,-9.72
2022-12-24T13:20:38.160Z,-10.06
2022-12-24T13:23:43.208Z,-9.64
2022-12-24T13:27:08.139Z,-9.60
2022-12-24T13:30:36.906Z,-9.82
2022-12-24T13:33:41.288Z,-9.78
2022-12-24T13:37:06.992Z,-9.93
2022-12-24T13:40:11.461Z,-9.86
2022-12-24T13:43:16.519Z,-9.56
2022-12-24T13:46:50.201Z,-9.38
2022-12-24T13:49:55.365Z,-9.77
2022-12-24T13:52:59.964Z,-9.95
2022-12-24T13:56:21.728Z,-9.69
2022-12-24T13:59:39.385Z,-10.10
2022-12-24T14:03:14.374Z,-10.15
2022-12-24T14:06:26.412Z,-10.29
2022-12-24T14:09:34.043Z,-9.81
2022-12-24T14:12:51.620Z,-9.78
2022-12-24T14:15:59.298Z,-10.04
2022-12-24T14:19:14.941Z,-10.06
2022-12-24T14:22:28.129Z,-10.17
2022-12-24T14:25:33.359Z,-10.32
2022-12-24T14:28:44.610Z,-10.32
2022-12-24T14:31:55.555Z,-10.04
2022-12-24T14:35:15.213Z,-9.86
2022-12-24T14:38:22.109Z,-9.80
2022-12-24T14:41:44.256Z,-10.22
2022-12-24T14:44:57.401Z,-10.27
2022-12-24T14:48:18.989Z,-10.45
2022-12-24T14:51:29.324Z,-10.73
2022-12-24T14:54:42.958Z,-10.59
2022-12-24T14:57:47.532Z,-10.55
2022-12-24T15:00:54.802Z,-10.58
2022-12-24T15:04:04.105Z,-10.66
2022-12-24T15:07:10.085Z,-10.76
2022-12-24T15:10:35.845Z,-10.57
2022-12-24T15:13:43.225Z,-10.59
2022-12-24T15:17:08.464Z,-10.62
2022-12-24T15:20:23.063Z,-10.45
2022-12-24T15:23:34.438Z,-10.62
2022-12-24T15:26:39.905Z,-10.69
2022-12-24T15:29:47.509Z,-10.66
2022-12-24T15:32:54.088Z,-10.60
2022-12-24T15:35:58.857Z,-10.65
2022-12-24T15:39:09.661Z,-10.73
2022-12-24T15:42:20.833Z,-10.72
2022-12-24T15:45:30.864Z,-10.87
2022-12-24T15:48:37.238Z,-10.78
2022-12-24T15:51:42.088Z,-10.41
2022-12-24T15:54:55.684Z,-10.12
2022-12-24T15:58:03.277Z,-10.55
2022-12-24T16:01:10.270Z,-10.90
2022-12-24T16:04:29.187Z,-10.60
2022-12-24T16:07:53.522Z,-10.74
2022-12-24T16:11:07.615Z,-10.86
2022-12-24T16:14:21.133Z,-11.07
2022-12-24T16:17:34.087Z,-11.35
2022-12-24T16:20:38.838Z,-11.22
2022-12-24T16:23:54.700Z,-11.27
2022-12-24T16:26:59.467Z,-11.42
2022-12-24T16:30:04.078Z,-11.50
2022-12-24T16:33:16.206Z,-11.76
2022-12-24T16:36:20.624Z,-11.93
2022-12-24T16:39:32.647Z,-11.89
2022-12-24T16:42:55.374Z,-11.71
2022-12-24T16:46:06.514Z,-11.52
2022-12-24T16:49:22.305Z,-11.55
2022-12-24T16:52:29.764Z,-11.74
2022-12-24T16:55:34.521Z,-11.99
2022-12-24T16:58:39.114Z,-11.70
2022-12-24T17:01:43.949Z,-11.68
2022-12-24T17:04:50.455Z,-11.93
2022-12-24T17:07:54.773Z,-12.14
2022-12-24T17:10:59.304Z,-12.53
2022-12-24T17:14:08.473Z,-12.37
2022-12-24T17:17:34.040Z,-12.46
2022-12-24T17:20:38.724Z,-12.51
2022-12-24T17:23:43.536Z,-12.35
2022-12-24T17:26:48.236Z,-12.41
2022-12-24T17:29:53.054Z,-12.27
2022-12-24T17:32:57.568Z,-12.22
2022-12-24T17:36:02.021Z,-12.32
2022-12-24T17:39:06.674Z,-12.22
2022-12-24T17:42:11.340Z,-11.96
2022-12-24T17:45:16.007Z,-11.81
2022-12-24T17:48:20.526Z,-11.61
2022-12-24T17:51:25.322Z,-11.78
2022-12-24T17:54:29.966Z,-11.85
2022-12-24T17:57:34.537Z,-11.98
2022-12-24T18:00:39.588Z,-11.84
2022-12-24T18:03:44.517Z,-11.75
2022-12-24T18:06:49.846Z,-11.73
2022-12-24T18:09:54.257Z,-11.88
2022-12-24T18:12:58.907Z,-11.88
2022-12-24T18:16:03.514Z,-12.10
2022-12-24T18:19:11.279Z,-12.05
2022-12-24T18:22:15.858Z,-12.15
2022-12-24T18:25:21.246Z,-12.18
2022-12-24T18:28:25.470Z,-12.26
2022-12-24T18:31:30.625Z,-12.32
2022-12-24T18:34:35.272Z,-12.25
2022-12-24T18:37:39.763Z,-12.16
2022-12-24T18:40:44.162Z,-11.57
2022-12-24T18:43:49.353Z,-11.92
2022-12-24T18:46:55.472Z,-12.18
2022-12-24T18:49:59.928Z,-12.31
2022-12-24T18:53:05.121Z,-12.31
2022-12-24T18:56:16.674Z,-11.97
2022-12-24T18:59:22.192Z,-11.46
2022-12-24T19:02:26.835Z,-11.70
2022-12-24T19:05:32.764Z,-11.90
2022-12-24T19:12:02.760Z,-11.51
2022-12-24T19:15:08.139Z,-11.45
2022-12-24T19:18:12.923Z,-11.27
2022-12-24T19:21:18.921Z,-10.84
2022-12-24T19:24:24.859Z,-11.01
2022-12-24T19:27:29.613Z,-10.89
2022-12-24T19:30:34.169Z,-11.18
2022-12-24T19:33:53.599Z,-10.92
2022-12-24T19:36:58.285Z,-10.81
2022-12-24T19:40:02.822Z,-10.60
2022-12-24T19:43:07.594Z,-10.55
2022-12-24T19:46:15.261Z,-10.29
2022-12-24T19:49:20.635Z,-10.18
2022-12-24T19:52:25.365Z,-10.33
2022-12-24T19:55:29.930Z,-10.66
2022-12-24T19:58:34.539Z,-10.89
2022-12-24T20:01:39.146Z,-10.88
2022-12-24T20:04:43.966Z,-11.06
2022-12-24T20:07:48.608Z,-11.05
2022-12-24T20:10:53.513Z,-11.36
2022-12-24T20:14:02.872Z,-11.22
2022-12-24T20:17:07.420Z,-11.22
2022-12-24T20:20:12.403Z,-11.24
2022-12-24T20:23:16.881Z,-11.16
2022-12-24T20:26:24.621Z,-11.05
2022-12-24T20:29:29.373Z,-11.07
2022-12-24T20:32:33.921Z,-11.05
2022-12-24T20:35:38.560Z,-11.11
2022-12-24T20:38:44.325Z,-11.26
2022-12-24T20:41:48.576Z,-11.42
2022-12-24T20:44:53.135Z,-11.35
2022-12-24T20:47:58.168Z,-11.09
2022-12-24T20:51:11.232Z,-10.99
2022-12-24T20:54:16.587Z,-10.97
2022-12-24T20:57:25.905Z,-11.31
2022-12-24T21:00:33.765Z,-11.39
2022-12-24T21:03:38.498Z,-11.24
2022-12-24T21:06:43.133Z,-11.41
2022-12-24T21:09:47.819Z,-11.34
2022-12-24T21:12:59.818Z,-11.32
2022-12-24T21:16:04.332Z,-11.04
2022-12-24T21:19:11.029Z,-10.81
2022-12-24T21:22:15.584Z,-10.92
2022-12-24T21:25:20.304Z,-11.28
2022-12-24T21:28:24.888Z,-11.03
2022-12-24T21:31:29.690Z,-11.16
2022-12-24T21:34:34.424Z,-11.07
2022-12-24T21:37:39.566Z,-10.95
2022-12-24T21:40:44.557Z,-11.18
2022-12-24T21:43:49.435Z,-11.09
2022-12-24T21:46:54.044Z,-10.95
2022-12-24T21:50:16.998Z,-10.65
2022-12-24T21:53:39.732Z,-10.85
2022-12-24T21:57:03.020Z,-11.21
2022-12-24T22:00:25.028Z,-11.28
2022-12-24T22:03:29.857Z,-11.24
2022-12-24T22:06:52.843Z,-11.12
2022-12-24T22:10:15.491Z,-11.15
2022-12-24T22:13:20.251Z,-11.48
2022-12-24T22:16:24.937Z,-10.92
2022-12-24T22:19:29.973Z,-10.85
2022-12-24T22:22:34.623Z,-11.00
2022-12-24T22:25:39.639Z,-11.38
2022-12-24T22:28:44.640Z,-10.59
2022-12-24T22:31:49.410Z,-10.73
2022-12-24T22:34:54.632Z,-10.94
2022-12-24T22:38:00.320Z,-11.03
2022-12-24T22:41:10.387Z,-11.00
2022-12-24T22:44:15.092Z,-11.07
2022-12-24T22:47:19.866Z,-11.10
2022-12-24T22:50:25.051Z,-10.89
2022-12-24T22:53:29.599Z,-10.78
2022-12-24T22:56:40.479Z,-10.73
2022-12-24T22:59:45.886Z,-10.60
2022-12-24T23:02:50.450Z,-10.94
2022-12-24T23:06:03.328Z,-10.58
2022-12-24T23:09:10.807Z,-10.27
2022-12-24T23:12:35.272Z,-10.81
2022-12-24T23:15:40.753Z,-10.62
2022-12-24T23:18:44.969Z,-10.54
2022-12-24T23:21:49.335Z,-10.60
2022-12-24T23:24:54.032Z,-10.70
2022-12-24T23:27:58.800Z,-10.31
2022-12-24T23:31:03.581Z,-10.53
2022-12-24T23:34:08.567Z,-10.59
2022-12-24T23:37:13.112Z,-10.29
2022-12-24T23:40:17.879Z,-10.29
2022-12-24T23:43:22.586Z,-10.29
2022-12-24T23:46:27.464Z,-10.06
2022-12-24T23:49:32.138Z,-10.35
2022-12-24T23:52:37.597Z,-10.71
2022-12-24T23:55:42.265Z,-10.47
2022-12-24T23:58:46.924Z,-10.44
